Time;durP1;ratioP1;P1;durP2;ratioP2;P2;SDS_P1;SDS_P2;PMS_P1;PMS_P2;Temp;Humidity;BMP_temperature;BMP_pressure;BME280_temperature;BME280_humidity;BME280_pressure;Samples;Min_cycle;Max_cycle;Signal;HPM_P1;HPM_P2
2022/06/17 00:01:37;;;;;;;2.30;1.73;;;;;;;;;;5039593;28;20478;-79
2022/06/17 00:04:04;;;;;;;2.20;1.97;;;;;;;;;;5045076;28;20452;-79
2022/06/17 00:06:38;;;;;;;1.87;1.77;;;;;;;;;;5043858;28;20945;-80
2022/06/17 00:09:07;;;;;;;2.13;1.93;;;;;;;;;;5043297;28;20969;-80
2022/06/17 00:11:36;;;;;;;2.00;1.80;;;;;;;;;;5046936;28;20579;-79
2022/06/17 00:14:03;;;;;;;2.92;2.55;;;;;;;;;;5032791;28;20464;-79
2022/06/17 00:16:30;;;;;;;2.37;1.70;;;;;;;;;;5044760;28;20199;-79
2022/06/17 00:18:57;;;;;;;1.80;1.70;;;;;;;;;;5049011;28;20468;-79
2022/06/17 00:21:25;;;;;;;3.22;2.13;;;;;;;;;;5044425;28;20790;-79
2022/06/17 00:23:53;;;;;;;3.20;2.40;;;;;;;;;;5044251;28;20732;-84
2022/06/17 00:26:22;;;;;;;2.47;1.95;;;;;;;;;;5035005;28;20566;-84
2022/06/17 00:28:49;;;;;;;2.33;1.73;;;;;;;;;;5039687;28;20220;-83
2022/06/17 00:31:16;;;;;;;1.85;1.75;;;;;;;;;;5048410;28;20247;-84
2022/06/17 00:33:43;;;;;;;1.90;1.67;;;;;;;;;;5047683;28;20205;-83
2022/06/17 00:36:13;;;;;;;1.93;1.70;;;;;;;;;;5045095;28;20251;-83
2022/06/17 00:38:40;;;;;;;2.20;1.60;;;;;;;;;;5042925;28;20511;-84
2022/06/17 00:41:23;;;;;;;3.00;2.00;;;;;;;;;;5050493;28;20194;-84
2022/06/17 00:43:52;;;;;;;3.17;1.75;;;;;;;;;;5047961;28;20210;-85
2022/06/17 00:46:26;;;;;;;2.30;2.08;;;;;;;;;;5048531;28;20200;-84
2022/06/17 00:49:07;;;;;;;1.95;1.85;;;;;;;;;;5049879;28;20228;-83
2022/06/17 00:51:37;;;;;;;1.60;1.50;;;;;;;;;;5046270;28;20706;-85
2022/06/17 00:54:08;;;;;;;2.00;1.90;;;;;;;;;;5047155;28;20462;-84
2022/06/17 00:56:36;;;;;;;1.65;1.55;;;;;;;;;;5044995;28;20190;-85
2022/06/17 00:59:07;;;;;;;2.08;1.73;;;;;;;;;;5040958;28;20649;-85
2022/06/17 01:01:38;;;;;;;2.55;1.80;;;;;;;;;;5046419;28;20208;-84
2022/06/17 01:04:09;;;;;;;6.70;2.38;;;;;;;;;;5034642;28;20205;-85
2022/06/17 01:06:37;;;;;;;1.83;1.73;;;;;;;;;;5036178;28;20204;-84
2022/06/17 01:11:52;;;;;;;2.00;1.58;;;;;;;;;;5045970;28;20233;-85
2022/06/17 01:14:23;;;;;;;2.38;2.00;;;;;;;;;;5049821;28;20205;-85
2022/06/17 01:16:51;;;;;;;2.03;1.83;;;;;;;;;;5048272;28;20223;-85
2022/06/17 01:19:23;;;;;;;2.65;2.35;;;;;;;;;;5044469;28;20195;-85
2022/06/17 01:21:52;;;;;;;2.35;2.15;;;;;;;;;;5039660;28;20200;-84
2022/06/17 01:24:21;;;;;;;2.03;1.80;;;;;;;;;;5045387;28;20199;-84
2022/06/17 01:26:48;;;;;;;4.07;2.15;;;;;;;;;;5034834;28;20197;-86
2022/06/17 01:29:15;;;;;;;2.30;2.10;;;;;;;;;;5045915;28;20200;-87
2022/06/17 01:31:44;;;;;;;2.80;1.95;;;;;;;;;;5046536;28;20231;-84
2022/06/17 01:34:13;;;;;;;3.33;2.83;;;;;;;;;;5033673;28;20198;-85
2022/06/17 01:36:40;;;;;;;2.03;1.90;;;;;;;;;;5042673;28;20243;-83
2022/06/17 01:39:08;;;;;;;2.47;2.13;;;;;;;;;;5042694;28;20558;-86
2022/06/17 01:41:36;;;;;;;2.58;2.38;;;;;;;;;;5047134;28;20678;-83
2022/06/17 01:44:06;;;;;;;3.08;1.80;;;;;;;;;;5041721;28;20197;-84
2022/06/17 01:46:35;;;;;;;3.30;2.45;;;;;;;;;;5042630;28;20567;-84
2022/06/17 01:49:05;;;;;;;2.25;2.05;;;;;;;;;;5045155;28;20199;-84
2022/06/17 01:51:34;;;;;;;1.70;1.60;;;;;;;;;;5039157;28;20219;-84
2022/06/17 01:54:03;;;;;;;2.30;2.10;;;;;;;;;;5050895;28;20287;-84
2022/06/17 01:56:34;;;;;;;2.33;2.13;;;;;;;;;;5045034;28;20197;-85
2022/06/17 01:59:05;;;;;;;2.10;2.00;;;;;;;;;;5036791;28;20203;-84
2022/06/17 02:01:34;;;;;;;2.00;1.90;;;;;;;;;;5048985;28;20291;-84
2022/06/17 02:04:03;;;;;;;2.88;2.30;;;;;;;;;;5051455;28;20196;-83
2022/06/17 02:06:33;;;;;;;2.25;2.05;;;;;;;;;;5046543;28;20192;-83
2022/06/17 02:09:00;;;;;;;2.13;1.92;;;;;;;;;;5052821;28;20246;-84
2022/06/17 02:11:27;;;;;;;1.83;1.73;;;;;;;;;;5050668;28;20221;-83
2022/06/17 02:13:54;;;;;;;3.33;1.88;;;;;;;;;;5045050;28;20266;-85
2022/06/17 02:16:23;;;;;;;2.55;2.15;;;;;;;;;;5043197;28;20720;-84
2022/06/17 02:18:53;;;;;;;2.42;2.22;;;;;;;;;;5037897;28;20294;-81
2022/06/17 02:21:24;;;;;;;3.05;2.05;;;;;;;;;;5046323;28;20283;-80
2022/06/17 02:23:52;;;;;;;2.08;1.98;;;;;;;;;;5044823;28;20215;-82
2022/06/17 02:26:19;;;;;;;2.10;1.92;;;;;;;;;;5042187;28;20200;-81
2022/06/17 02:28:47;;;;;;;3.25;2.17;;;;;;;;;;5044281;28;20690;-81
2022/06/17 02:31:16;;;;;;;2.03;1.83;;;;;;;;;;5042223;28;20709;-81
2022/06/17 02:33:48;;;;;;;1.73;1.63;;;;;;;;;;5049848;28;20326;-81
2022/06/17 02:36:18;;;;;;;2.60;2.40;;;;;;;;;;5045434;28;20222;-81
2022/06/17 02:38:45;;;;;;;2.90;2.50;;;;;;;;;;5046806;28;20233;-82
2022/06/17 02:41:16;;;;;;;3.03;2.63;;;;;;;;;;5037556;28;20554;-81
2022/06/17 02:43:45;;;;;;;3.38;1.92;;;;;;;;;;5044856;28;20233;-81
2022/06/17 02:46:15;;;;;;;2.15;1.95;;;;;;;;;;5050858;28;20196;-81
2022/06/17 02:48:44;;;;;;;2.50;2.03;;;;;;;;;;5044690;28;20199;-81
2022/06/17 02:51:13;;;;;;;2.60;2.22;;;;;;;;;;5032387;28;20215;-81
2022/06/17 02:53:41;;;;;;;3.30;2.97;;;;;;;;;;5046312;28;20247;-82
2022/06/17 02:56:10;;;;;;;2.65;2.25;;;;;;;;;;5046398;28;20210;-80
2022/06/17 02:58:44;;;;;;;2.47;2.28;;;;;;;;;;5045309;28;20245;-81
2022/06/17 03:01:16;;;;;;;2.55;2.35;;;;;;;;;;5049144;28;20195;-80
2022/06/17 03:03:43;;;;;;;2.53;2.28;;;;;;;;;;5050739;28;20211;-80
2022/06/17 03:06:16;;;;;;;2.90;2.60;;;;;;;;;;5047582;28;20191;-81
2022/06/17 03:08:44;;;;;;;2.10;1.90;;;;;;;;;;5052815;28;20199;-80
2022/06/17 03:11:12;;;;;;;2.28;2.08;;;;;;;;;;5043838;28;20560;-81
2022/06/17 03:13:42;;;;;;;2.90;2.58;;;;;;;;;;5049247;28;20199;-80
2022/06/17 03:16:11;;;;;;;2.92;2.50;;;;;;;;;;5044568;28;20286;-80
2022/06/17 03:18:38;;;;;;;2.08;1.75;;;;;;;;;;5052007;28;20195;-79
2022/06/17 03:21:06;;;;;;;2.67;2.40;;;;;;;;;;5036373;28;20651;-81
2022/06/17 03:23:38;;;;;;;2.53;2.33;;;;;;;;;;5047605;28;20611;-79
2022/06/17 03:26:08;;;;;;;2.25;2.05;;;;;;;;;;5035739;28;20203;-79
2022/06/17 03:28:37;;;;;;;3.50;2.88;;;;;;;;;;5042966;28;20200;-79
2022/06/17 03:31:06;;;;;;;2.95;2.55;;;;;;;;;;5037546;28;20223;-80
2022/06/17 03:33:35;;;;;;;2.95;1.98;;;;;;;;;;5049704;28;20191;-79
2022/06/17 03:36:05;;;;;;;2.75;2.53;;;;;;;;;;5038865;28;20257;-79
2022/06/17 03:38:37;;;;;;;3.95;2.08;;;;;;;;;;5039935;28;20277;-81
2022/06/17 03:41:07;;;;;;;2.25;1.60;;;;;;;;;;5043018;28;20191;-80
2022/06/17 03:43:37;;;;;;;2.80;2.13;;;;;;;;;;5041328;28;20195;-80
2022/06/17 03:46:05;;;;;;;2.10;2.00;;;;;;;;;;5038836;28;20201;-78
2022/06/17 03:48:35;;;;;;;2.35;2.15;;;;;;;;;;5046549;28;20195;-79
2022/06/17 03:51:02;;;;;;;5.55;2.60;;;;;;;;;;5042261;28;20202;-79
2022/06/17 03:53:31;;;;;;;2.63;2.42;;;;;;;;;;5046547;28;20586;-78
2022/06/17 03:55:59;;;;;;;2.40;2.17;;;;;;;;;;5044879;28;20199;-79
2022/06/17 03:58:28;;;;;;;2.30;2.10;;;;;;;;;;5036086;28;20389;-79
2022/06/17 04:00:58;;;;;;;2.08;1.90;;;;;;;;;;5048748;28;20203;-79
2022/06/17 04:03:26;;;;;;;5.35;3.03;;;;;;;;;;5045084;28;20253;-79
2022/06/17 04:05:55;;;;;;;2.60;2.40;;;;;;;;;;5049491;28;20252;-79
2022/06/17 04:08:22;;;;;;;2.35;2.15;;;;;;;;;;5033538;28;20203;-78
2022/06/17 04:10:49;;;;;;;2.00;1.90;;;;;;;;;;5047667;28;20195;-79
2022/06/17 04:13:18;;;;;;;4.32;2.35;;;;;;;;;;5038971;28;20745;-81
2022/06/17 04:15:49;;;;;;;3.65;2.45;;;;;;;;;;5047824;28;20658;-80
2022/06/17 04:18:16;;;;;;;2.92;2.42;;;;;;;;;;5048257;28;20199;-78
2022/06/17 04:20:45;;;;;;;1.83;1.73;;;;;;;;;;5050265;28;20224;-79
2022/06/17 04:23:13;;;;;;;2.65;2.45;;;;;;;;;;5030953;28;20196;-78
2022/06/17 04:25:42;;;;;;;2.45;2.20;;;;;;;;;;5031561;28;20220;-78
2022/06/17 04:28:11;;;;;;;3.10;2.20;;;;;;;;;;5033307;28;20195;-81
2022/06/17 04:30:42;;;;;;;2.47;2.25;;;;;;;;;;5043217;28;20200;-79
2022/06/17 04:33:12;;;;;;;2.55;2.35;;;;;;;;;;5040617;28;20219;-79
2022/06/17 04:35:39;;;;;;;2.70;2.38;;;;;;;;;;5045490;28;20651;-81
2022/06/17 04:38:06;;;;;;;3.20;2.90;;;;;;;;;;5030106;28;20195;-80
2022/06/17 04:40:37;;;;;;;2.30;2.10;;;;;;;;;;5046861;28;20191;-78
2022/06/17 04:43:07;;;;;;;2.50;2.30;;;;;;;;;;5034400;28;20641;-77
2022/06/17 04:45:34;;;;;;;2.17;2.08;;;;;;;;;;5042136;28;20249;-79
2022/06/17 04:48:01;;;;;;;2.28;1.90;;;;;;;;;;5042588;28;20226;-77
2022/06/17 04:50:31;;;;;;;2.65;2.20;;;;;;;;;;5050612;28;20191;-78
2022/06/17 04:52:58;;;;;;;2.47;2.28;;;;;;;;;;5036293;28;20966;-80
2022/06/17 04:55:28;;;;;;;2.30;2.10;;;;;;;;;;5039268;28;20658;-78
2022/06/17 04:57:55;;;;;;;3.00;2.67;;;;;;;;;;5042690;28;20199;-77
2022/06/17 05:00:23;;;;;;;3.88;2.75;;;;;;;;;;5037083;28;20206;-78
2022/06/17 05:02:50;;;;;;;3.30;3.00;;;;;;;;;;5047853;28;20219;-78
2022/06/17 05:05:21;;;;;;;2.95;2.75;;;;;;;;;;5052962;28;20202;-78
2022/06/17 05:07:51;;;;;;;4.75;3.30;;;;;;;;;;5037830;28;20689;-79
2022/06/17 05:10:19;;;;;;;3.17;2.90;;;;;;;;;;5040699;28;20252;-79
2022/06/17 05:12:48;;;;;;;3.05;2.38;;;;;;;;;;5042018;28;20223;-80
2022/06/17 05:15:17;;;;;;;3.13;2.40;;;;;;;;;;5050117;28;20206;-79
2022/06/17 05:17:44;;;;;;;3.17;2.88;;;;;;;;;;5054297;28;20203;-79
2022/06/17 05:20:13;;;;;;;3.03;2.78;;;;;;;;;;5049206;28;20609;-78
2022/06/17 05:22:42;;;;;;;3.28;3.00;;;;;;;;;;5034832;28;20618;-79
2022/06/17 05:25:15;;;;;;;3.15;2.85;;;;;;;;;;5040763;28;20204;-78
2022/06/17 05:27:42;;;;;;;4.32;2.90;;;;;;;;;;5048514;28;20208;-80
2022/06/17 05:30:11;;;;;;;2.60;2.40;;;;;;;;;;5045776;28;20195;-82
2022/06/17 05:32:39;;;;;;;2.40;2.20;;;;;;;;;;5046717;28;20266;-78
2022/06/17 05:35:07;;;;;;;2.85;2.65;;;;;;;;;;5046002;28;20609;-78
2022/06/17 05:37:34;;;;;;;2.78;2.53;;;;;;;;;;5041269;28;20647;-79
2022/06/17 05:40:01;;;;;;;2.42;2.00;;;;;;;;;;5049517;28;20651;-78
2022/06/17 05:42:29;;;;;;;2.10;2.00;;;;;;;;;;5049570;28;20219;-79
2022/06/17 05:44:56;;;;;;;2.75;2.55;;;;;;;;;;5045884;28;20200;-79
2022/06/17 05:47:23;;;;;;;4.10;2.55;;;;;;;;;;5052284;28;20196;-81
2022/06/17 05:49:50;;;;;;;2.53;2.35;;;;;;;;;;5050207;28;20208;-80
2022/06/17 05:52:18;;;;;;;2.70;2.30;;;;;;;;;;5039084;28;20229;-81
2022/06/17 05:54:45;;;;;;;2.72;2.53;;;;;;;;;;5050871;28;20414;-80
2022/06/17 05:57:12;;;;;;;2.70;2.50;;;;;;;;;;5042679;28;20260;-79
2022/06/17 05:59:41;;;;;;;2.65;1.90;;;;;;;;;;5042012;28;20237;-79
2022/06/17 06:02:08;;;;;;;2.15;1.95;;;;;;;;;;5047897;28;20194;-78
2022/06/17 06:04:35;;;;;;;3.35;2.22;;;;;;;;;;5046450;28;20195;-79
2022/06/17 06:07:02;;;;;;;2.25;2.05;;;;;;;;;;5036829;28;20637;-78
2022/06/17 06:09:29;;;;;;;1.60;1.50;;;;;;;;;;5046743;28;20197;-79
2022/06/17 06:11:56;;;;;;;2.55;2.25;;;;;;;;;;5048564;28;20216;-81
2022/06/17 06:14:23;;;;;;;2.00;1.80;;;;;;;;;;5044444;28;20492;-78
2022/06/17 06:16:52;;;;;;;2.75;2.05;;;;;;;;;;5048978;28;20206;-78
2022/06/17 06:19:19;;;;;;;2.50;1.83;;;;;;;;;;5043056;28;20205;-77
2022/06/17 06:21:46;;;;;;;2.42;1.63;;;;;;;;;;5043022;28;20741;-80
2022/06/17 06:24:13;;;;;;;2.53;1.80;;;;;;;;;;5053000;28;20206;-79
2022/06/17 06:26:41;;;;;;;1.80;1.50;;;;;;;;;;5040063;28;20199;-79
2022/06/17 06:29:08;;;;;;;2.47;1.73;;;;;;;;;;5034799;28;20848;-78
2022/06/17 06:31:35;;;;;;;1.88;1.75;;;;;;;;;;5043929;28;20199;-78
2022/06/17 06:34:04;;;;;;;1.85;1.65;;;;;;;;;;5043659;28;20228;-78
2022/06/17 06:36:31;;;;;;;3.17;1.60;;;;;;;;;;5037417;28;20226;-78
2022/06/17 06:38:58;;;;;;;1.80;1.63;;;;;;;;;;5044471;28;20205;-76
2022/06/17 06:41:26;;;;;;;1.50;1.33;;;;;;;;;;5048109;28;20201;-76
2022/06/17 06:43:53;;;;;;;3.17;1.87;;;;;;;;;;5046259;28;20196;-77
2022/06/17 06:46:22;;;;;;;2.40;1.95;;;;;;;;;;5049083;28;20459;-77
2022/06/17 06:48:49;;;;;;;2.58;1.95;;;;;;;;;;5066507;28;20197;-77
2022/06/17 06:51:18;;;;;;;1.75;1.65;;;;;;;;;;5043468;28;20198;-77
2022/06/17 06:53:46;;;;;;;1.90;1.80;;;;;;;;;;5046551;28;20226;-77
2022/06/17 06:56:13;;;;;;;2.47;1.70;;;;;;;;;;5051652;28;20839;-77
2022/06/17 06:58:40;;;;;;;2.00;1.33;;;;;;;;;;5050742;28;20825;-76
2022/06/17 07:01:07;;;;;;;2.33;1.60;;;;;;;;;;5037561;28;20453;-78
2022/06/17 07:03:34;;;;;;;2.10;1.70;;;;;;;;;;5040904;28;20936;-76
2022/06/17 07:06:02;;;;;;;1.60;1.30;;;;;;;;;;5053619;28;20458;-77
2022/06/17 07:08:32;;;;;;;2.60;1.67;;;;;;;;;;5050235;28;20533;-76
2022/06/17 07:11:00;;;;;;;1.63;1.40;;;;;;;;;;5048748;28;20449;-77
2022/06/17 07:13:27;;;;;;;1.47;1.37;;;;;;;;;;5048582;28;20480;-77
2022/06/17 07:15:54;;;;;;;2.17;1.63;;;;;;;;;;5038431;28;20864;-78
2022/06/17 07:18:22;;;;;;;3.03;1.63;;;;;;;;;;5046217;28;20975;-78
2022/06/17 07:20:51;;;;;;;4.17;1.93;;;;;;;;;;5045135;28;20461;-78
2022/06/17 07:23:19;;;;;;;1.10;1.00;;;;;;;;;;5052971;28;20788;-77
2022/06/17 07:25:47;;;;;;;2.57;1.50;;;;;;;;;;5035502;28;20999;-77
2022/06/17 07:28:15;;;;;;;1.80;1.27;;;;;;;;;;5045174;28;20463;-78
2022/06/17 07:30:44;;;;;;;1.57;1.37;;;;;;;;;;5039064;28;20477;-78
2022/06/17 07:33:11;;;;;;;1.60;1.20;;;;;;;;;;5040823;28;20477;-77
2022/06/17 07:35:38;;;;;;;2.03;1.27;;;;;;;;;;5036905;28;20473;-78
2022/06/17 07:40:51;;;;;;;1.73;1.27;;;;;;;;;;5038131;28;20562;-78
2022/06/17 07:43:18;;;;;;;2.33;1.20;;;;;;;;;;5035920;28;20473;-78
2022/06/17 07:45:45;;;;;;;1.63;1.27;;;;;;;;;;5042273;28;20956;-78
2022/06/17 07:48:13;;;;;;;2.10;1.47;;;;;;;;;;5046147;28;20976;-77
2022/06/17 07:50:41;;;;;;;1.70;1.60;;;;;;;;;;5043519;28;20461;-78
2022/06/17 07:53:09;;;;;;;1.20;1.10;;;;;;;;;;5034951;28;20485;-80
2022/06/17 07:55:36;;;;;;;2.50;1.60;;;;;;;;;;5043061;28;21080;-77
2022/06/17 07:58:05;;;;;;;1.63;1.53;;;;;;;;;;5045941;28;20544;-79
2022/06/17 08:00:33;;;;;;;2.40;1.60;;;;;;;;;;5040192;28;20810;-76
2022/06/17 08:03:01;;;;;;;2.63;1.50;;;;;;;;;;5050182;28;20496;-78
2022/06/17 08:05:28;;;;;;;1.43;1.33;;;;;;;;;;5047370;28;20452;-77
2022/06/17 08:07:56;;;;;;;1.90;1.40;;;;;;;;;;5039751;28;20465;-77
2022/06/17 08:10:25;;;;;;;1.60;1.30;;;;;;;;;;5048393;28;20975;-77
2022/06/17 08:12:52;;;;;;;1.20;1.07;;;;;;;;;;5039422;28;20477;-78
2022/06/17 08:15:21;;;;;;;1.40;1.30;;;;;;;;;;5041490;28;20826;-77
2022/06/17 08:17:49;;;;;;;1.63;1.30;;;;;;;;;;5044982;28;20446;-77
2022/06/17 08:20:16;;;;;;;2.30;1.33;;;;;;;;;;5046113;28;20556;-76
2022/06/17 08:22:43;;;;;;;1.50;1.40;;;;;;;;;;5043526;28;20453;-76
2022/06/17 08:25:10;;;;;;;1.60;1.50;;;;;;;;;;5045532;28;20453;-75
2022/06/17 08:27:41;;;;;;;1.77;1.30;;;;;;;;;;5045344;28;20493;-75
2022/06/17 08:30:09;;;;;;;1.40;1.00;;;;;;;;;;5047857;28;20994;-77
2022/06/17 08:32:47;;;;;;;1.73;1.20;;;;;;;;;;5040183;28;21106;-75
2022/06/17 08:35:14;;;;;;;1.60;1.30;;;;;;;;;;5054860;28;20801;-76
2022/06/17 08:37:42;;;;;;;1.40;1.30;;;;;;;;;;5034276;28;20944;-80
2022/06/17 08:40:16;;;;;;;2.67;1.10;;;;;;;;;;5050106;28;20963;-80
2022/06/17 08:42:48;;;;;;;1.40;1.30;;;;;;;;;;5048630;28;20481;-80
2022/06/17 08:45:19;;;;;;;1.93;1.50;;;;;;;;;;5042067;28;20547;-77
2022/06/17 08:48:02;;;;;;;1.50;1.20;;;;;;;;;;5049059;28;20446;-77
2022/06/17 08:50:39;;;;;;;1.43;1.20;;;;;;;;;;5035372;28;20795;-78
2022/06/17 08:53:12;;;;;;;1.20;0.97;;;;;;;;;;5037457;28;21046;-77
2022/06/17 08:55:41;;;;;;;1.83;1.43;;;;;;;;;;5049810;28;20453;-79
2022/06/17 08:58:14;;;;;;;1.50;1.20;;;;;;;;;;5047204;28;20449;-76
2022/06/17 09:00:44;;;;;;;1.87;1.43;;;;;;;;;;5038675;28;20458;-78
2022/06/17 09:03:23;;;;;;;1.90;1.23;;;;;;;;;;5051599;28;20797;-78
2022/06/17 09:05:53;;;;;;;2.00;1.23;;;;;;;;;;5039860;28;20461;-77
2022/06/17 09:08:29;;;;;;;3.57;1.17;;;;;;;;;;5046146;28;20453;-78
2022/06/17 09:11:02;;;;;;;1.30;1.20;;;;;;;;;;5049245;28;20456;-78
2022/06/17 09:13:34;;;;;;;1.70;1.23;;;;;;;;;;5039342;28;20595;-77
2022/06/17 09:16:05;;;;;;;1.33;1.10;;;;;;;;;;5046479;28;20465;-76
2022/06/17 09:18:37;;;;;;;2.20;1.27;;;;;;;;;;5043326;28;20870;-76
2022/06/17 09:21:08;;;;;;;4.13;1.30;;;;;;;;;;5041142;28;20465;-78
2022/06/17 09:23:38;;;;;;;1.40;1.30;;;;;;;;;;5055052;28;20461;-76
2022/06/17 09:26:08;;;;;;;1.93;1.47;;;;;;;;;;5048657;28;20507;-76
2022/06/17 09:28:37;;;;;;;2.03;1.20;;;;;;;;;;5048477;28;20448;-75
2022/06/17 09:31:06;;;;;;;1.30;1.10;;;;;;;;;;5041627;28;20460;-78
2022/06/17 09:33:39;;;;;;;1.60;1.17;;;;;;;;;;5048849;28;20481;-75
2022/06/17 09:36:09;;;;;;;1.20;1.10;;;;;;;;;;5041627;28;20482;-77
2022/06/17 09:38:38;;;;;;;1.40;1.30;;;;;;;;;;5040730;28;20873;-77
2022/06/17 09:41:09;;;;;;;1.57;1.20;;;;;;;;;;5048285;28;20456;-78
2022/06/17 09:43:38;;;;;;;2.50;1.20;;;;;;;;;;5052252;28;20458;-79
2022/06/17 09:46:11;;;;;;;1.43;1.30;;;;;;;;;;5044672;28;20465;-78
2022/06/17 09:48:43;;;;;;;2.70;1.20;;;;;;;;;;5047307;28;20934;-79
2022/06/17 09:51:16;;;;;;;2.27;1.67;;;;;;;;;;5041415;28;20489;-81
2022/06/17 09:53:45;;;;;;;1.83;1.30;;;;;;;;;;5038131;28;20547;-80
2022/06/17 09:56:14;;;;;;;1.50;1.10;;;;;;;;;;5046914;28;20545;-82
2022/06/17 09:58:44;;;;;;;2.37;1.40;;;;;;;;;;5043643;28;20474;-85
2022/06/17 10:01:12;;;;;;;2.27;1.27;;;;;;;;;;5042416;28;20460;-78
2022/06/17 10:03:40;;;;;;;2.10;1.20;;;;;;;;;;5048483;28;20452;-79
2022/06/17 10:06:14;;;;;;;1.30;1.17;;;;;;;;;;5037041;28;20461;-81
2022/06/17 10:08:48;;;;;;;1.33;1.23;;;;;;;;;;5039257;28;20447;-80
2022/06/17 10:11:18;;;;;;;1.47;1.13;;;;;;;;;;5030287;28;20481;-81
2022/06/17 10:13:52;;;;;;;1.70;1.20;;;;;;;;;;5030778;28;20486;-80
2022/06/17 10:19:18;;;;;;;1.57;1.27;;;;;;;;;;5034339;28;20510;-81
2022/06/17 10:21:53;;;;;;;7.13;1.43;;;;;;;;;;5031926;28;20465;-78
2022/06/17 10:24:26;;;;;;;2.20;1.43;;;;;;;;;;5040003;28;20472;-79
2022/06/17 10:27:03;;;;;;;2.00;1.50;;;;;;;;;;5041685;28;20829;-77
2022/06/17 10:29:42;;;;;;;1.50;1.40;;;;;;;;;;5034749;28;20458;-77
2022/06/17 10:32:09;;;;;;;1.40;1.30;;;;;;;;;;5044777;28;20484;-77
2022/06/17 10:34:40;;;;;;;1.47;1.17;;;;;;;;;;5043892;28;20508;-76
2022/06/17 10:37:07;;;;;;;6.63;1.33;;;;;;;;;;5029230;28;20470;-80
2022/06/17 10:39:36;;;;;;;1.93;1.50;;;;;;;;;;5033573;28;20592;-78
2022/06/17 10:42:03;;;;;;;1.63;1.53;;;;;;;;;;5045237;28;20489;-79
2022/06/17 10:44:32;;;;;;;1.50;1.40;;;;;;;;;;5041830;28;20461;-77
2022/06/17 10:47:01;;;;;;;2.30;1.50;;;;;;;;;;5037279;28;20454;-78
2022/06/17 10:49:31;;;;;;;1.30;1.20;;;;;;;;;;5048107;28;20442;-77
2022/06/17 10:52:00;;;;;;;1.50;1.30;;;;;;;;;;5030540;28;20473;-79
2022/06/17 10:54:29;;;;;;;1.10;1.00;;;;;;;;;;5045319;28;20992;-78
2022/06/17 10:56:59;;;;;;;1.30;1.10;;;;;;;;;;5041863;28;20848;-77
2022/06/17 10:59:38;;;;;;;2.10;1.50;;;;;;;;;;5047256;28;20831;-78
2022/06/17 11:02:06;;;;;;;1.40;1.30;;;;;;;;;;5043144;28;20975;-77
2022/06/17 11:04:34;;;;;;;1.20;1.00;;;;;;;;;;5038342;28;20449;-77
2022/06/17 11:07:05;;;;;;;1.40;1.30;;;;;;;;;;5044732;28;20500;-79
2022/06/17 11:09:35;;;;;;;1.97;1.40;;;;;;;;;;5037286;28;20457;-82
2022/06/17 11:12:07;;;;;;;1.40;1.20;;;;;;;;;;5034778;28;20465;-77
2022/06/17 11:14:39;;;;;;;1.53;1.10;;;;;;;;;;5035230;28;20486;-80
2022/06/17 11:17:14;;;;;;;1.20;1.00;;;;;;;;;;5033874;28;20468;-79
2022/06/17 11:19:42;;;;;;;1.60;1.10;;;;;;;;;;5044286;28;20449;-77
2022/06/17 11:22:18;;;;;;;1.87;1.60;;;;;;;;;;5035679;28;20519;-77
2022/06/17 11:24:49;;;;;;;2.10;1.37;;;;;;;;;;5046747;28;20465;-77
2022/06/17 11:27:23;;;;;;;1.80;1.40;;;;;;;;;;5031997;28;20461;-80
2022/06/17 11:29:52;;;;;;;1.40;1.17;;;;;;;;;;5045613;28;21049;-81
2022/06/17 11:32:30;;;;;;;1.37;1.20;;;;;;;;;;5031739;28;20458;-82
2022/06/17 11:34:57;;;;;;;2.33;1.30;;;;;;;;;;5038911;28;20492;-80
2022/06/17 11:37:27;;;;;;;1.10;1.00;;;;;;;;;;5040350;28;20875;-83
2022/06/17 11:40:12;;;;;;;2.50;1.80;;;;;;;;;;5038765;28;20454;-82
2022/06/17 11:42:50;;;;;;;1.63;1.53;;;;;;;;;;5039056;28;20465;-78
2022/06/17 11:45:19;;;;;;;1.50;1.30;;;;;;;;;;5045299;28;20814;-82
2022/06/17 11:47:49;;;;;;;2.03;1.50;;;;;;;;;;5043493;28;20534;-81
2022/06/17 11:50:18;;;;;;;1.40;1.30;;;;;;;;;;5035285;28;20960;-81
2022/06/17 11:52:48;;;;;;;1.80;1.23;;;;;;;;;;5034345;28;20455;-80
2022/06/17 11:55:16;;;;;;;2.73;1.57;;;;;;;;;;5043464;28;20901;-80
2022/06/17 11:57:43;;;;;;;2.30;1.20;;;;;;;;;;5033245;28;20838;-81
2022/06/17 12:00:22;;;;;;;1.33;1.17;;;;;;;;;;5036095;28;21312;-83
2022/06/17 12:02:54;;;;;;;1.47;1.30;;;;;;;;;;5029164;28;20458;-80
2022/06/17 12:05:22;;;;;;;2.33;1.23;;;;;;;;;;5028853;28;20529;-81
2022/06/17 12:07:53;;;;;;;2.60;1.10;;;;;;;;;;5034847;28;20466;-80
2022/06/17 12:10:29;;;;;;;1.50;1.07;;;;;;;;;;5045239;28;20477;-80
2022/06/17 12:12:58;;;;;;;1.13;1.00;;;;;;;;;;5036141;28;20465;-80
2022/06/17 12:15:28;;;;;;;2.97;1.60;;;;;;;;;;5043767;28;20534;-80
2022/06/17 12:17:56;;;;;;;2.10;1.40;;;;;;;;;;5031360;28;20465;-80
2022/06/17 12:20:25;;;;;;;1.13;1.03;;;;;;;;;;5048105;28;20843;-80
2022/06/17 12:22:59;;;;;;;3.57;1.07;;;;;;;;;;5037543;28;20937;-79
2022/06/17 12:25:31;;;;;;;1.00;0.87;;;;;;;;;;5046046;28;20461;-79
2022/06/17 12:28:01;;;;;;;1.70;1.30;;;;;;;;;;5039405;28;20453;-80
2022/06/17 12:30:34;;;;;;;7.23;1.43;;;;;;;;;;5031377;28;20471;-80
2022/06/17 12:33:03;;;;;;;1.50;1.40;;;;;;;;;;5033672;28;20460;-80
2022/06/17 12:35:34;;;;;;;1.53;1.20;;;;;;;;;;5046088;28;20481;-79
2022/06/17 12:38:07;;;;;;;1.67;1.10;;;;;;;;;;5030387;28;20466;-79
2022/06/17 12:40:36;;;;;;;3.13;1.37;;;;;;;;;;5044650;28;20456;-79
2022/06/17 12:43:08;;;;;;;3.43;1.77;;;;;;;;;;5039868;28;20473;-80
2022/06/17 12:45:39;;;;;;;1.87;1.40;;;;;;;;;;5042046;28;20464;-81
2022/06/17 12:48:14;;;;;;;1.57;1.30;;;;;;;;;;5033605;28;20965;-79
2022/06/17 12:53:38;;;;;;;1.67;1.47;;;;;;;;;;5042387;28;20468;-80
2022/06/17 12:56:17;;;;;;;1.97;1.20;;;;;;;;;;5037716;28;20744;-81
2022/06/17 12:59:02;;;;;;;1.00;0.90;;;;;;;;;;5046567;28;20468;-80
2022/06/17 13:01:34;;;;;;;1.50;1.13;;;;;;;;;;5026802;28;20450;-81
2022/06/17 13:04:25;;;;;;;1.20;1.00;;;;;;;;;;5038703;28;20453;-81
2022/06/17 13:06:59;;;;;;;1.60;1.17;;;;;;;;;;5021146;28;20822;-80
2022/06/17 13:09:32;;;;;;;1.50;1.00;;;;;;;;;;5028301;28;20521;-80
2022/06/17 13:12:06;;;;;;;1.73;1.20;;;;;;;;;;5037715;28;20552;-80
2022/06/17 13:14:39;;;;;;;2.33;1.67;;;;;;;;;;5035760;28;20551;-79
2022/06/17 13:17:08;;;;;;;1.07;0.97;;;;;;;;;;5041420;28;20430;-78
2022/06/17 13:19:38;;;;;;;3.00;1.30;;;;;;;;;;5044654;28;20462;-78
2022/06/17 13:22:08;;;;;;;1.50;1.20;;;;;;;;;;5035584;28;20449;-79
2022/06/17 13:24:39;;;;;;;1.30;1.10;;;;;;;;;;5045471;28;20453;-78
2022/06/17 13:27:08;;;;;;;1.20;1.00;;;;;;;;;;5047672;28;20971;-79
2022/06/17 13:29:38;;;;;;;1.70;1.20;;;;;;;;;;5049703;28;20453;-78
2022/06/17 13:32:07;;;;;;;1.50;1.10;;;;;;;;;;5039755;28;20461;-79
2022/06/17 13:34:37;;;;;;;1.40;1.00;;;;;;;;;;5039136;28;20478;-79
2022/06/17 13:37:07;;;;;;;1.13;1.00;;;;;;;;;;5043345;28;20457;-79
2022/06/17 13:39:35;;;;;;;1.53;1.27;;;;;;;;;;5053830;28;21048;-80
2022/06/17 13:42:05;;;;;;;1.90;1.50;;;;;;;;;;5043340;28;20485;-79
2022/06/17 13:44:39;;;;;;;1.37;1.00;;;;;;;;;;5045570;28;20461;-79
2022/06/17 13:47:09;;;;;;;1.20;1.10;;;;;;;;;;5039726;28;20493;-79
2022/06/17 13:49:41;;;;;;;1.53;1.13;;;;;;;;;;5046300;28;20453;-79
2022/06/17 13:52:13;;;;;;;2.03;1.27;;;;;;;;;;5045255;28;20471;-79
2022/06/17 13:54:45;;;;;;;1.40;1.10;;;;;;;;;;5046309;28;20473;-78
2022/06/17 13:57:17;;;;;;;3.97;1.10;;;;;;;;;;5046005;28;20465;-79
2022/06/17 13:59:47;;;;;;;2.53;1.30;;;;;;;;;;5040963;28;20553;-78
2022/06/17 14:02:29;;;;;;;1.60;1.40;;;;;;;;;;5049370;28;20976;-78
2022/06/17 14:05:07;;;;;;;2.27;1.00;;;;;;;;;;5052166;28;20457;-79
2022/06/17 14:07:53;;;;;;;2.43;1.00;;;;;;;;;;5039075;28;20462;-79
2022/06/17 14:10:27;;;;;;;1.57;1.30;;;;;;;;;;5043113;28;20465;-79
2022/06/17 14:12:56;;;;;;;1.10;1.00;;;;;;;;;;5039805;28;20453;-80
2022/06/17 14:15:26;;;;;;;1.97;1.10;;;;;;;;;;5044566;28;20486;-79
2022/06/17 14:17:56;;;;;;;1.50;1.10;;;;;;;;;;5051455;28;20457;-78
2022/06/17 14:20:27;;;;;;;1.63;1.40;;;;;;;;;;5039264;28;20553;-78
2022/06/17 14:23:01;;;;;;;1.50;1.17;;;;;;;;;;5039025;28;20466;-80
2022/06/17 14:25:44;;;;;;;1.40;1.00;;;;;;;;;;5051381;28;20956;-79
2022/06/17 14:28:26;;;;;;;1.43;1.33;;;;;;;;;;5046776;28;20536;-79
2022/06/17 14:31:09;;;;;;;1.50;1.10;;;;;;;;;;5048592;28;20462;-79
2022/06/17 14:33:55;;;;;;;1.50;1.20;;;;;;;;;;5044047;28;20552;-78
2022/06/17 14:36:36;;;;;;;4.13;1.40;;;;;;;;;;5047861;28;20547;-78
2022/06/17 14:39:05;;;;;;;1.30;1.10;;;;;;;;;;5044457;28;20457;-79
2022/06/17 14:44:25;;;;;;;1.87;1.10;;;;;;;;;;5040567;28;20434;-78
2022/06/17 14:47:10;;;;;;;1.07;0.90;;;;;;;;;;5050877;28;20460;-79
2022/06/17 14:49:42;;;;;;;1.27;1.03;;;;;;;;;;5060566;28;20425;-83
2022/06/17 14:52:24;;;;;;;1.60;0.90;;;;;;;;;;5034407;28;20465;-80
2022/06/17 14:54:58;;;;;;;1.10;1.00;;;;;;;;;;5053889;28;20477;-80
2022/06/17 14:57:26;;;;;;;4.13;1.27;;;;;;;;;;5046187;28;21155;-79
2022/06/17 15:00:02;;;;;;;1.50;1.23;;;;;;;;;;5043321;28;20478;-80
2022/06/17 15:02:39;;;;;;;2.67;1.20;;;;;;;;;;5044586;28;20797;-81
2022/06/17 15:05:16;;;;;;;3.17;1.50;;;;;;;;;;5041280;28;20460;-79
2022/06/17 15:07:46;;;;;;;1.80;1.20;;;;;;;;;;5033458;28;20561;-80
2022/06/17 15:10:19;;;;;;;1.37;1.10;;;;;;;;;;5039876;28;20994;-79
2022/06/17 15:12:47;;;;;;;1.10;0.90;;;;;;;;;;5034635;28;20465;-79
2022/06/17 15:15:15;;;;;;;1.47;1.10;;;;;;;;;;5026151;28;20591;-81